Saddlestring, Wyoming
Current Conditions -  °F | °C
As of 4:53 PM on Wednesday 22 Oct 2014 (Local Time) from KBYG Reporting Station
Clear Clear  
Wind Chill: 59°   Ceiling: Unl
Heat Index: 59°   Visibility: 10mi
Dew Point: 23°   Wind: 5mph
Humidity: 25%   Direction: 350°N
Pressure: 30.01"   Gusts: NA
Location:  44.46°N, 106.9°W
Report Text: KBYG 222253Z AUTO 35004KT 10SM CLR 15/M05 A3001 RMK AO2 SLP142 T01501050
Loading
Personal Weather Stations






























Interactive Weather Map
Tropical Storm Tracking
New forecast layout! Learn more

10-Day Weather Forecast

Advertisements
Track Severe Weather on mobile